Log in

NASDAQ:LSXMALiberty Sirius XM Group Series A Institutional Ownership

$35.88
-0.49 (-1.35 %)
(As of 05/29/2020 04:00 PM ET)
Add
Compare
Today's Range
$35.40
Now: $35.88
$37.34
50-Day Range
$29.08
MA: $32.23
$36.37
52-Week Range
$22.54
Now: $35.88
$51.11
Volume1.10 million shs
Average Volume1.16 million shs
Market Capitalization$11.25 billion
P/E Ratio18.69
Dividend YieldN/A
Beta1.28

Institutional Ownership

Institutional Ownership Changes (13F Filings) for Liberty Sirius XM Group Series A (NASDAQ:LSXMA)

Institutional Ownership Percentage: 28.87%

Institutional Buying and Selling by Quarter


Liberty Sirius XM Group Series A (NASDAQ LSXMA) Institutional Buying and Selling

Reporting DateHedge FundShares HeldMarket Value% of PortfolioQuarterly Change in SharesOwnership in Company
5/22/2020Clearbridge Investments LLC3,194,252$101.23M0.1%-3.5%1.018%
5/21/2020HighTower Advisors LLC9,369$0.29M0.0%-5.1%0.003%
5/19/2020APG Asset Management N.V.72,801$2.31M0.0%+47.5%0.023%
5/18/2020Raging Capital Management LLC60,200$1.91M1.4%N/A0.019%
5/18/2020Voloridge Investment Management LLC32,202$1.02M0.0%-63.0%0.010%
5/18/2020Advisor Group Holdings Inc.3,989$0.12M0.0%N/A0.001%
5/18/2020Pin Oak Investment Advisors Inc.15,350$0.49M0.5%N/A0.005%
5/15/2020Kingstown Capital Management L.P.600,000$19.01M2.9%+50.0%0.190%
5/15/2020FPR Partners LLC2,433,439$77.12M3.2%-28.3%0.772%
5/15/2020Engineers Gate Manager LP30,963$0.98M0.1%+6.8%0.010%
5/15/2020Paloma Partners Management Co37,318$1.18M0.1%+171.8%0.012%
5/15/2020AXA177,200$5.62M0.0%+261.6%0.056%
5/15/2020Invesco Ltd.107,098$3.39M0.0%-93.2%0.034%
5/15/2020ArrowMark Colorado Holdings LLC173,904$5.51M0.1%+5.1%0.055%
5/15/2020APG Asset Management N.V.72,801$2.31M0.0%+47.5%0.023%
5/15/2020Balyasny Asset Management LLC233,059$7.39M0.1%+19.5%0.074%
5/15/2020Maven Securities LTD15,282$0.48M0.1%-74.6%0.005%
5/15/2020New Mountain Vantage Advisers L.L.C.677,473$21.47M1.2%+26.6%0.215%
5/14/2020Caisse DE Depot ET Placement DU Quebec12,800$0.41M0.0%+37.6%0.004%
5/14/2020Gabelli Funds LLC245,900$7.79M0.1%-1.9%0.078%
5/14/2020Baupost Group LLC MA625,568$19.82M0.3%N/A0.198%
5/14/2020Wells Fargo & Company MN1,378,887$43.70M0.0%-98.3%0.437%
5/14/2020Athanor Capital LP252,068$7.99M0.5%+16.1%0.080%
5/14/2020Gamco Investors INC. ET AL679,901$21.55M0.3%-4.2%0.216%
5/14/2020III Capital Management34,000$1.08M1.8%N/A0.011%
5/14/2020Geode Capital Management LLC1,241,584$39.33M0.0%+8.8%0.394%
5/14/2020Seeyond48,632$1.61M0.2%+3.7%0.015%
5/14/2020Janus Henderson Group PLC365,621$11.59M0.0%+481.9%0.116%
5/14/2020ThornTree Capital Partners LP339,100$10.75M3.0%N/A0.108%
5/14/2020Wellington Management Group LLP27,618$0.88M0.0%-53.0%0.009%
5/14/2020Swift Run Capital Management LLC92,186$2.92M4.1%-25.1%0.029%
5/14/2020Legal & General Group Plc536,644$17.02M0.0%+1.7%0.170%
5/14/2020Aviva PLC19,676$0.62M0.0%-3.1%0.006%
5/14/2020APG Asset Management N.V.20,500$0.70M0.0%-58.5%0.007%
5/14/2020Deutsche Bank AG1,328,506$42.10M0.0%-14.3%0.421%
5/14/2020Rockshelter Capital Management LLC137,195$4.35M2.1%+24.3%0.044%
5/14/2020Nuveen Asset Management LLC301,179$9.54M0.0%+2.2%0.096%
5/14/2020Korea Investment CORP21,700$0.69M0.0%N/A0.007%
5/14/2020Wintrust Investments LLC15,030$0.48M0.1%-7.6%0.005%
5/13/2020PFS Investments Inc.7,486$0.24M0.0%+25.3%0.002%
5/13/2020Canada Pension Plan Investment Board118,855$3.77M0.0%-0.8%0.038%
5/13/2020AlphaCrest Capital Management LLC25,800$0.82M0.1%+37.5%0.008%
5/13/2020Parametric Portfolio Associates LLC154,987$4.91M0.0%+5.2%0.049%
5/13/2020Treasurer of the State of North Carolina34,853$1.10M0.0%+71.1%0.011%
5/13/2020BNP Paribas Arbitrage SA502,955$15.94M0.0%+913.4%0.160%
5/13/2020Horizon Kinetics Asset Management LLC638,811$20.24M0.9%-11.9%0.203%
5/13/2020Penn Capital Management Co. Inc.64,462$2.11M0.3%-6.7%0.020%
5/13/2020Pinnacle Associates Ltd.291,029$9.22M0.3%-11.4%0.092%
5/13/2020Pictet Asset Management Ltd.31,891$1.01M0.0%+1.9%0.010%
5/13/2020Toronto Dominion Bank14,697$0.47M0.0%-99.0%0.005%
5/13/2020Mitsubishi UFJ Trust & Banking Corp68,487$2.17M0.0%+3.4%0.022%
5/13/2020US Bancorp DE2,549$80K0.0%+45.5%0.001%
5/12/2020Pecaut & CO.152,459$4.83M4.4%-1.8%0.048%
5/12/2020Citigroup Inc.50,870$1.61M0.0%-98.4%0.016%
5/12/2020Principal Financial Group Inc.1,429,401$45.30M0.1%+1.3%0.453%
5/12/2020Victory Capital Management Inc.130,623$4.14M0.0%-36.5%0.041%
5/12/2020Bislett Management LLC270,000$8.56M6.8%+3.8%0.086%
5/12/2020California Public Employees Retirement System549,570$17.42M0.0%-10.8%0.174%
5/11/2020Eagle Asset Management Inc.76,688$2.43M0.0%+26.0%0.024%
5/11/2020Ensign Peak Advisors Inc60,300$1.91M0.0%-71.1%0.019%
5/11/2020Roundview Capital LLC40,603$1.29M0.3%+58.5%0.013%
5/11/2020State Street Corp2,140,028$67.82M0.0%-1.6%0.679%
5/11/2020Fjarde AP Fonden Fourth Swedish National Pension Fund35,205$1.12M0.0%-6.9%0.011%
5/11/2020RMB Capital Management LLC28,342$0.90M0.0%N/A0.009%
5/11/2020Mitsubishi UFJ Kokusai Asset Management Co. Ltd.11,904$0.38M0.0%-16.6%0.004%
5/8/2020Commerce Bank8,526$0.27M0.0%+79.5%0.003%
5/8/2020Swiss National Bank339,571$10.76M0.0%+23.1%0.108%
5/6/2020Zurcher Kantonalbank Zurich Cantonalbank61,057$1.94M0.0%+114.7%0.019%
5/6/2020First Manhattan Co.316,871$10.04M0.1%-1.4%0.100%
5/6/2020Russell Investments Group Ltd.71,974$2.28M0.0%-34.6%0.023%
5/6/2020Bank of New York Mellon Corp283,355$8.98M0.0%-77.9%0.090%
5/6/2020Rhumbline Advisers93,143$2.95M0.0%+8.4%0.030%
5/6/2020Redmond Asset Management LLC115,867$3.67M1.8%+1.2%0.037%
5/6/2020New York State Common Retirement Fund133,500$4.23M0.0%-24.7%0.042%
5/6/2020Alps Advisors Inc.102,400$3.25M0.1%-12.3%0.032%
5/6/2020Eidelman Virant Capital149,980$4.75M4.9%-53.6%0.048%
5/5/2020Mad River Investors49,470$1.57M2.4%-20.4%0.016%
5/5/2020Stone Ridge Asset Management LLC16,544$0.52M0.1%-65.0%0.005%
5/5/2020Nissay Asset Management Corp Japan ADV8,696$0.28M0.0%+3.9%0.003%
5/5/2020W.G. Shaheen & Associates DBA Whitney & Co124,984$3.96M1.0%+1.3%0.040%
5/5/2020Teacher Retirement System of Texas44,907$1.42M0.0%-52.7%0.014%
5/5/2020Arizona State Retirement System20,137$0.64M0.0%N/A0.006%
5/5/2020Seizert Capital Partners LLC8,387$0.27M0.0%-45.4%0.003%
5/5/2020State Board of Administration of Florida Retirement System84,319$2.67M0.0%-1.5%0.027%
5/5/2020Creative Planning8,462$0.27M0.0%N/A0.003%
5/5/2020Aperio Group LLC74,343$2.36M0.0%+13.9%0.024%
5/5/2020First Quadrant L P CA10,466$0.33M0.0%-44.3%0.003%
5/4/2020Banyan Capital Management Inc.8,609$0.27M0.3%-26.8%0.003%
5/4/2020American International Group Inc.55,211$1.75M0.0%+4,070.0%0.018%
5/4/2020KBC Group NV22,829$0.72M0.0%+67.5%0.007%
5/4/2020Victory Capital Management Inc.130,623$4.14M0.0%-36.5%0.041%
5/4/2020Forsta AP Fonden110,000$3.49M0.1%N/A0.035%
5/2/2020Natixis Advisors L.P.33,968$1.08M0.0%-13.2%0.011%
5/2/2020SG Americas Securities LLC398,342$12.62M0.1%N/A0.126%
5/1/2020Prudential PLC19,051$0.60M0.0%+154.8%0.006%
5/1/2020Markston International LLC133,371$4.23M0.6%-3.8%0.042%
5/1/2020UBS Group AG439,718$13.93M0.0%+478.7%0.139%
4/30/2020Community Capital Management Inc.14,800$0.47M0.8%+37.0%0.005%
4/30/2020CIBC Asset Management Inc11,604$0.37M0.0%-12.9%0.004%
4/30/2020Janney Montgomery Scott LLC12,767$0.41M0.0%-5.8%0.004%
(Data available from 1/1/2016 forward)
This page was last updated on 5/30/2020 by MarketBeat.com Staff

Enter your email address below to receive a concise daily summary of analysts' upgrades, downgrades and new coverage with MarketBeat.com's FREE daily email newsletter.